Time;durP1;ratioP1;P1;durP2;ratioP2;P2;SDS_P1;SDS_P2;PMS_P1;PMS_P2;Temp;Humidity;BMP_temperature;BMP_pressure;BME280_temperature;BME280_humidity;BME280_pressure;Samples;Min_cycle;Max_cycle;Signal;HPM_P1;HPM_P2
2022/12/16 00:01:09;;;;;;;;;;;;;;;5.64;78.44;99830.47;5012604;28;20382;-91
2022/12/16 00:04:10;;;;;;;;;;;;;;;5.74;78.19;99834.00;5013095;28;19914;-90
2022/12/16 00:06:55;;;;;;;;;;;;;;;5.62;78.17;99831.31;5012977;28;19918;-90
2022/12/16 00:09:20;;;;;;;;;;;;;;;5.59;78.22;99836.53;4990021;28;19924;-89
2022/12/16 00:11:46;;;;;;;;;;;;;;;5.52;78.30;99836.47;4991864;28;19918;-90
2022/12/16 00:14:11;;;;;;;;;;;;;;;5.46;78.64;99838.19;4990103;28;20016;-90
2022/12/16 00:16:36;;;;;;;;;;;;;;;5.46;78.89;99833.81;4991712;28;19954;-90
2022/12/16 00:19:02;;;;;;;;;;;;;;;5.53;78.56;99826.88;5007859;28;19918;-90
2022/12/16 00:21:28;;;;;;;;;;;;;;;5.60;77.86;99825.19;5011660;28;19920;-90
2022/12/16 00:23:54;;;;;;;;;;;;;;;5.42;78.31;99837.25;5011598;28;19917;-90
2022/12/16 00:26:20;;;;;;;;;;;;;;;5.41;78.46;99832.00;4993752;28;19918;-90
2022/12/16 00:28:46;;;;;;;;;;;;;;;5.42;78.50;99841.63;5012276;28;19996;-92
2022/12/16 00:31:12;;;;;;;;;;;;;;;5.44;78.44;99845.13;4994342;28;19917;-90
2022/12/16 00:33:37;;;;;;;;;;;;;;;5.43;78.03;99844.25;5011624;28;19920;-89
2022/12/16 00:36:02;;;;;;;;;;;;;;;5.29;78.41;99835.41;5011930;28;19955;-91
2022/12/16 00:38:28;;;;;;;;;;;;;;;5.29;78.54;99831.06;5011481;28;20043;-90
2022/12/16 00:50:20;;;;;;;;;;;;;;;;;;;;;
2022/12/16 00:52:48;;;;;;;;;;;;;;;4.92;79.26;99851.63;4978226;28;19923;-92
2022/12/16 00:55:14;;;;;;;;;;;;;;;4.96;79.16;99852.56;5010744;28;19913;-94
2022/12/16 00:58:17;;;;;;;;;;;;;;;;;;;;;
2022/12/16 01:07:08;;;;;;;;;;;;;;;4.93;80.85;99829.00;5010725;28;19915;-93
2022/12/16 01:10:06;;;;;;;;;;;;;;;5.06;80.32;99822.13;5008074;28;19913;-92
2022/12/16 01:12:35;;;;;;;;;;;;;;;4.86;80.78;99827.16;4993878;28;20318;-92
2022/12/16 01:15:01;;;;;;;;;;;;;;;4.72;80.79;99830.50;4992169;28;20015;-91
2022/12/16 01:17:26;;;;;;;;;;;;;;;4.84;80.95;99817.56;5010505;28;20004;-92
2022/12/16 01:19:52;;;;;;;;;;;;;;;4.78;81.07;99824.47;5010608;28;19949;-92
2022/12/16 01:22:18;;;;;;;;;;;;;;;4.97;81.05;99828.13;4992804;28;20016;-92
2022/12/16 01:24:44;;;;;;;;;;;;;;;5.11;80.21;99842.25;5010737;28;19917;-93
2022/12/16 01:27:10;;;;;;;;;;;;;;;4.58;82.19;99850.38;4992959;28;19935;-93
2022/12/16 01:29:35;;;;;;;;;;;;;;;4.52;84.28;99851.19;5010078;28;19917;-92
2022/12/16 01:32:00;;;;;;;;;;;;;;;4.73;83.77;99845.34;5008922;28;19936;-92
2022/12/16 01:34:26;;;;;;;;;;;;;;;4.70;84.12;99853.13;5010671;28;20052;-91
2022/12/16 01:36:51;;;;;;;;;;;;;;;4.95;83.91;99849.03;5009743;28;19961;-91
2022/12/16 01:39:16;;;;;;;;;;;;;;;5.01;83.46;99848.25;5008745;28;19913;-92
2022/12/16 01:41:42;;;;;;;;;;;;;;;5.12;83.09;99841.38;5009630;28;20004;-93
2022/12/16 01:44:18;;;;;;;;;;;;;;;5.17;82.88;99838.78;4993116;28;19920;-93
2022/12/16 01:46:52;;;;;;;;;;;;;;;5.26;83.04;99849.34;5010053;28;19913;-93
2022/12/16 01:49:24;;;;;;;;;;;;;;;5.32;82.72;99853.75;4993445;28;19963;-93
2022/12/16 01:51:59;;;;;;;;;;;;;;;5.26;82.69;99857.19;4995473;28;20032;-93
2022/12/16 01:54:28;;;;;;;;;;;;;;;5.25;82.55;99844.09;4994980;28;19918;-94
2022/12/16 01:56:56;;;;;;;;;;;;;;;5.33;81.61;99830.22;4994024;28;19998;-95
2022/12/16 02:02:26;;;;;;;;;;;;;;;4.93;81.22;99831.59;4996200;28;20299;-94
2022/12/16 02:11:18;;;;;;;;;;;;;;;4.89;81.14;99798.44;4915968;29;19986;-94
2022/12/16 02:20:12;;;;;;;;;;;;;;;4.88;81.72;99781.00;4923771;29;19958;-92
2022/12/16 02:22:48;;;;;;;;;;;;;;;5.00;81.66;99797.69;4985533;28;19917;-94
2022/12/16 02:28:44;;;;;;;;;;;;;;;4.87;81.53;99811.50;4994098;28;19983;-92
2022/12/16 02:34:48;;;;;;;;;;;;;;;4.96;82.02;99792.44;4996803;28;19916;-95
2022/12/16 02:47:07;;;;;;;;;;;;;;;;;;;;;
2022/12/16 02:49:44;;;;;;;;;;;;;;;5.06;82.32;99799.47;4994586;28;19924;-93
2022/12/16 02:52:10;;;;;;;;;;;;;;;5.01;82.02;99807.28;4991945;28;19917;-93
2022/12/16 02:54:36;;;;;;;;;;;;;;;4.96;82.31;99808.97;4991989;28;19914;-93
2022/12/16 02:57:22;;;;;;;;;;;;;;;5.06;82.43;99804.69;4991497;28;19925;-93
2022/12/16 03:00:04;;;;;;;;;;;;;;;;;;;;;
2022/12/16 03:09:38;;;;;;;;;;;;;;;5.25;82.79;99789.16;5013646;28;19977;-94
2022/12/16 03:24:45;;;;;;;;;;;;;;;5.46;84.41;99796.31;4899112;29;19985;-93
2022/12/16 03:30:41;;;;;;;;;;;;;;;5.51;84.96;99791.97;4915720;29;19958;-93
2022/12/16 03:33:14;;;;;;;;;;;;;;;5.57;85.23;99798.13;4955218;28;19918;-94
2022/12/16 03:36:09;;;;;;;;;;;;;;;5.68;85.32;99803.44;4936414;29;19915;-94
2022/12/16 03:38:43;;;;;;;;;;;;;;;5.51;86.37;99805.06;4985677;28;19969;-95
2022/12/16 03:41:10;;;;;;;;;;;;;;;5.35;86.95;99796.22;4992409;28;19913;-93
2022/12/16 03:43:38;;;;;;;;;;;;;;;5.47;86.92;99798.94;4991211;28;19921;-92
2022/12/16 03:46:05;;;;;;;;;;;;;;;5.50;86.99;99806.81;4992234;28;19988;-93
2022/12/16 03:48:33;;;;;;;;;;;;;;;5.43;87.61;99815.47;4992804;28;19918;-93
2022/12/16 03:50:59;;;;;;;;;;;;;;;5.58;87.76;99822.56;4990481;28;19924;-92
2022/12/16 03:53:25;;;;;;;;;;;;;;;5.06;90.29;99833.47;5003784;28;19985;-93
2022/12/16 03:55:54;;;;;;;;;;;;;;;5.24;90.72;99831.91;4996041;28;20306;-93
2022/12/16 03:58:19;;;;;;;;;;;;;;;5.20;91.29;99833.59;4994439;28;19913;-92
2022/12/16 04:00:45;;;;;;;;;;;;;;;5.23;91.77;99825.78;4993906;28;20323;-92
2022/12/16 04:06:17;;;;;;;;;;;;;;;5.49;91.41;99840.81;5013055;28;19932;-91
2022/12/16 04:08:48;;;;;;;;;;;;;;;5.64;90.79;99843.56;4994906;28;19917;-90
2022/12/16 04:25:44;;;;;;;;;;;;;;;6.28;87.14;99822.13;5011865;28;19920;-94
2022/12/16 04:28:31;;;;;;;;;;;;;;;6.38;86.97;99820.44;4995566;28;19917;-94
2022/12/16 04:30:56;;;;;;;;;;;;;;;6.39;86.45;99816.94;5011863;28;19917;-93
